Time;durP1;ratioP1;P1;durP2;ratioP2;P2;SDS_P1;SDS_P2;PMS_P1;PMS_P2;Temp;Humidity;BMP_temperature;BMP_pressure;BME280_temperature;BME280_humidity;BME280_pressure;Samples;Min_cycle;Max_cycle;Signal;HPM_P1;HPM_P2
2021/08/01 00:01:23;;;;;;;5.13;2.90;;;;;;;21.46;57.16;101037.69;4950533;29;20031;-70
2021/08/01 00:03:50;;;;;;;3.53;2.20;;;;;;;21.46;57.46;101029.69;4951457;29;20039;-69
2021/08/01 00:06:16;;;;;;;4.35;2.38;;;;;;;21.45;57.10;101028.88;4951126;29;20548;-69
2021/08/01 00:08:42;;;;;;;3.42;2.08;;;;;;;21.44;57.30;101037.09;4950964;29;20059;-70
2021/08/01 00:11:08;;;;;;;4.03;2.60;;;;;;;21.44;56.81;101037.91;4955355;28;20041;-70
2021/08/01 00:13:33;;;;;;;5.18;2.42;;;;;;;21.44;56.74;101024.56;4950636;28;20465;-69
2021/08/01 00:16:00;;;;;;;4.28;2.20;;;;;;;21.43;56.69;101020.25;4951493;28;20047;-70
2021/08/01 00:18:26;;;;;;;4.22;2.30;;;;;;;21.43;56.60;101020.25;4951268;28;20115;-68
2021/08/01 00:20:51;;;;;;;4.53;2.40;;;;;;;21.43;56.45;101014.09;4951355;28;20035;-70
2021/08/01 00:23:16;;;;;;;3.33;2.42;;;;;;;21.42;56.62;101013.28;4950822;28;20061;-69
2021/08/01 00:25:42;;;;;;;4.85;2.38;;;;;;;21.42;56.85;101015.94;4950327;28;20091;-69
2021/08/01 00:28:07;;;;;;;2.90;2.20;;;;;;;21.41;56.32;101026.81;4950851;28;20107;-69
2021/08/01 00:30:33;;;;;;;4.15;2.40;;;;;;;21.40;56.61;101027.84;4933899;29;20171;-70
2021/08/01 00:32:59;;;;;;;3.40;2.45;;;;;;;21.40;56.22;101036.69;4951084;29;20031;-69
2021/08/01 00:35:25;;;;;;;3.42;2.38;;;;;;;21.39;56.13;101035.03;4933900;29;20134;-69
2021/08/01 00:37:50;;;;;;;3.95;2.28;;;;;;;21.39;56.04;101035.03;4950618;29;20035;-69
2021/08/01 00:40:17;;;;;;;3.65;2.40;;;;;;;21.38;55.89;101033.41;4950340;29;20043;-69
2021/08/01 00:42:42;;;;;;;3.17;2.03;;;;;;;21.37;55.97;101036.28;4950733;29;20114;-69
2021/08/01 00:45:08;;;;;;;4.75;2.03;;;;;;;21.37;55.83;101037.09;4951119;29;20126;-69
2021/08/01 00:47:35;;;;;;;3.78;2.08;;;;;;;21.36;55.74;101035.44;4950995;29;20042;-70
2021/08/01 00:50:06;;;;;;;3.55;2.30;;;;;;;21.36;55.79;101040.78;4950600;29;20031;-70
2021/08/01 00:52:31;;;;;;;3.10;2.08;;;;;;;21.35;55.53;101036.47;4950594;28;20639;-69
2021/08/01 00:54:56;;;;;;;3.70;2.05;;;;;;;21.36;55.33;101035.44;4950237;28;20047;-70
2021/08/01 00:57:22;;;;;;;2.67;1.95;;;;;;;21.36;55.53;101042.63;4951163;28;20050;-70
2021/08/01 00:59:47;;;;;;;3.55;2.17;;;;;;;21.35;55.38;101047.16;4950020;28;20388;-69
2021/08/01 01:02:17;;;;;;;3.65;1.88;;;;;;;21.35;55.18;101039.16;4950253;28;20062;-69
2021/08/01 01:04:49;;;;;;;3.05;2.20;;;;;;;21.36;55.58;101039.97;4950388;28;20030;-70
2021/08/01 01:07:36;;;;;;;4.60;2.10;;;;;;;21.35;54.95;101043.66;4950937;28;20560;-69
2021/08/01 01:10:11;;;;;;;3.83;2.10;;;;;;;21.34;55.37;101048.19;4952944;28;20121;-69
2021/08/01 01:12:45;;;;;;;3.40;2.10;;;;;;;21.32;55.39;101042.22;4950532;28;20470;-69
2021/08/01 01:15:18;;;;;;;4.03;2.20;;;;;;;21.34;55.17;101045.50;4950390;28;20035;-69
2021/08/01 01:17:48;;;;;;;3.20;1.90;;;;;;;21.35;55.12;101046.31;4950865;28;20027;-70
2021/08/01 01:20:24;;;;;;;3.47;1.90;;;;;;;21.33;55.09;101043.88;4949801;28;20039;-69
2021/08/01 01:23:09;;;;;;;4.18;2.05;;;;;;;21.29;55.13;101045.28;4950501;28;20830;-70
2021/08/01 01:25:58;;;;;;;3.33;1.83;;;;;;;21.31;54.75;101045.09;4956243;28;20031;-70
2021/08/01 01:28:39;;;;;;;3.20;2.10;;;;;;;21.31;54.80;101039.75;4956479;28;20086;-70
2021/08/01 01:31:18;;;;;;;2.80;2.00;;;;;;;21.28;54.54;101043.63;4943739;28;20247;-69
2021/08/01 01:34:12;;;;;;;3.05;1.88;;;;;;;21.29;54.83;101045.28;4938256;28;20374;-69
2021/08/01 01:36:41;;;;;;;4.03;2.15;;;;;;;21.29;54.77;101039.94;4957821;28;20430;-70
2021/08/01 01:39:08;;;;;;;3.60;2.00;;;;;;;21.29;54.18;101047.13;4968609;28;20043;-69
2021/08/01 01:41:36;;;;;;;3.63;1.90;;;;;;;21.29;54.12;101039.94;4970119;28;20027;-70
2021/08/01 01:44:05;;;;;;;4.18;2.10;;;;;;;21.28;54.18;101045.47;4961601;28;20034;-70
2021/08/01 01:46:31;;;;;;;3.35;1.90;;;;;;;21.27;54.17;101047.31;4964681;28;20035;-69
2021/08/01 01:48:58;;;;;;;3.47;2.00;;;;;;;21.27;53.92;101046.50;4960619;28;20450;-69
2021/08/01 01:51:24;;;;;;;5.35;2.40;;;;;;;21.26;53.51;101044.84;4965532;28;20073;-69
2021/08/01 01:53:50;;;;;;;2.70;2.03;;;;;;;21.25;53.88;101043.22;4960246;28;20051;-69
2021/08/01 01:56:17;;;;;;;4.38;2.17;;;;;;;21.24;53.62;101039.69;4964992;28;20137;-70
2021/08/01 01:58:42;;;;;;;4.07;2.10;;;;;;;21.25;53.76;101038.69;4961941;28;20063;-69
2021/08/01 02:01:08;;;;;;;3.92;2.42;;;;;;;21.25;53.43;101038.69;4938829;28;20364;-70
2021/08/01 02:03:34;;;;;;;4.47;2.25;;;;;;;21.25;53.43;101041.38;4964175;28;20109;-69
2021/08/01 02:06:00;;;;;;;3.40;2.42;;;;;;;21.26;53.65;101039.53;4944050;29;20074;-70
2021/08/01 02:08:33;;;;;;;3.75;1.90;;;;;;;21.26;53.20;101050.19;4965666;28;20105;-70
2021/08/01 02:10:59;;;;;;;3.38;1.83;;;;;;;21.27;53.57;101049.16;4960299;28;20035;-70
2021/08/01 02:13:40;;;;;;;2.65;1.85;;;;;;;21.22;53.41;101044.41;4955948;28;20544;-69
2021/08/01 02:16:07;;;;;;;2.78;2.13;;;;;;;21.25;53.52;101038.69;4956707;29;20467;-70
2021/08/01 02:18:51;;;;;;;3.28;1.75;;;;;;;21.21;53.36;101043.59;4938910;29;20042;-69
2021/08/01 02:21:20;;;;;;;3.63;2.00;;;;;;;21.24;52.90;101047.69;4956886;29;20035;-70
2021/08/01 02:23:47;;;;;;;3.38;2.17;;;;;;;21.24;53.09;101047.69;4954883;28;20190;-69
2021/08/01 02:26:16;;;;;;;6.95;2.13;;;;;;;21.24;52.94;101053.03;4956155;28;20035;-70
2021/08/01 02:28:42;;;;;;;4.03;2.10;;;;;;;21.24;53.32;101047.69;4956186;28;20039;-69
2021/08/01 02:31:10;;;;;;;2.75;1.90;;;;;;;21.23;52.99;101046.88;4956094;28;20110;-69
2021/08/01 02:33:36;;;;;;;2.70;1.70;;;;;;;21.24;52.91;101047.69;4956219;28;20094;-69
2021/08/01 02:36:05;;;;;;;3.72;2.08;;;;;;;21.24;52.69;101045.03;4952818;28;20513;-70
2021/08/01 02:38:31;;;;;;;3.33;2.00;;;;;;;21.22;52.95;101045.22;4953244;29;20035;-70
2021/08/01 02:41:01;;;;;;;3.13;2.10;;;;;;;21.23;52.51;101049.53;4952188;28;20043;-69
2021/08/01 02:43:30;;;;;;;3.92;2.10;;;;;;;21.22;52.58;101047.91;4955395;28;20023;-70
2021/08/01 02:45:56;;;;;;;3.17;1.90;;;;;;;21.23;52.76;101048.72;4957922;28;20039;-69
2021/08/01 02:48:24;;;;;;;5.32;1.90;;;;;;;21.23;52.52;101051.41;4944800;28;20065;-69
2021/08/01 02:50:57;;;;;;;3.65;1.98;;;;;;;21.23;52.60;101048.72;4951010;28;20069;-70
2021/08/01 02:53:24;;;;;;;4.72;2.03;;;;;;;21.23;52.51;101054.06;4952195;29;20035;-69
2021/08/01 02:55:51;;;;;;;3.45;1.80;;;;;;;21.23;52.53;101048.72;4935415;29;20043;-69
2021/08/01 02:58:18;;;;;;;3.25;1.90;;;;;;;21.23;52.16;101048.72;4935326;29;20526;-70
2021/08/01 03:00:47;;;;;;;3.58;1.95;;;;;;;21.22;52.06;101050.56;4951717;29;20441;-69
2021/08/01 03:03:15;;;;;;;4.97;1.95;;;;;;;21.23;51.81;101051.41;4951997;28;20587;-69
2021/08/01 03:05:43;;;;;;;4.22;2.08;;;;;;;21.23;52.20;101040.72;4953058;28;20047;-69
2021/08/01 03:08:12;;;;;;;4.75;1.95;;;;;;;21.22;51.86;101049.75;4951406;28;20477;-69
2021/08/01 03:10:42;;;;;;;5.35;1.83;;;;;;;21.21;52.03;101045.44;4952636;28;20126;-69
2021/08/01 03:13:08;;;;;;;4.00;1.88;;;;;;;21.21;51.98;101048.94;4952008;28;20039;-69
2021/08/01 03:15:33;;;;;;;3.72;1.90;;;;;;;21.21;51.85;101050.78;4952565;28;20059;-69
2021/08/01 03:17:59;;;;;;;2.65;1.80;;;;;;;21.19;51.88;101042.97;4952498;28;20031;-69
2021/08/01 03:20:24;;;;;;;2.90;1.80;;;;;;;21.19;51.82;101052.81;4952109;28;20063;-69
2021/08/01 03:22:50;;;;;;;3.40;1.90;;;;;;;21.18;51.72;101043.19;4952474;28;20115;-70
2021/08/01 03:25:15;;;;;;;3.97;2.15;;;;;;;21.17;51.52;101047.69;4950357;28;20393;-69
2021/08/01 03:27:41;;;;;;;4.15;2.05;;;;;;;21.17;51.21;101041.53;4952434;28;20034;-70
2021/08/01 03:30:07;;;;;;;3.17;1.80;;;;;;;21.17;51.20;101038.88;4952226;28;20035;-69
2021/08/01 03:32:32;;;;;;;3.78;1.88;;;;;;;21.17;51.44;101038.88;4952570;28;20035;-70
2021/08/01 03:34:58;;;;;;;3.92;1.90;;;;;;;21.16;51.14;101042.56;4951942;28;20050;-69
2021/08/01 03:37:27;;;;;;;3.53;2.00;;;;;;;21.15;51.34;101040.91;4951960;28;20390;-70
2021/08/01 03:39:52;;;;;;;4.50;2.10;;;;;;;21.15;51.05;101043.59;4951533;29;20035;-69
2021/08/01 03:42:18;;;;;;;3.67;2.20;;;;;;;21.15;51.33;101046.25;4954562;28;20039;-69
2021/08/01 03:44:43;;;;;;;3.92;2.17;;;;;;;21.15;51.25;101040.91;4958390;28;20031;-70
2021/08/01 03:47:09;;;;;;;3.08;2.03;;;;;;;21.16;51.04;101039.91;4958032;28;20043;-70
2021/08/01 03:49:34;;;;;;;2.70;1.90;;;;;;;21.14;51.16;101042.75;4943218;28;20819;-70
2021/08/01 03:51:59;;;;;;;3.50;2.17;;;;;;;21.15;51.38;101038.25;4939304;29;20039;-69
2021/08/01 03:54:25;;;;;;;3.97;2.10;;;;;;;21.15;50.87;101038.25;4961394;28;20042;-69
2021/08/01 03:56:51;;;;;;;3.42;1.85;;;;;;;21.15;51.28;101044.41;4957154;28;20114;-69
2021/08/01 03:59:16;;;;;;;4.20;2.13;;;;;;;21.14;50.79;101052.59;4952080;28;20409;-69
2021/08/01 04:01:42;;;;;;;4.00;2.33;;;;;;;21.14;50.81;101044.59;4949537;29;20049;-69
2021/08/01 04:04:07;;;;;;;3.15;2.20;;;;;;;21.13;51.10;101045.59;4934312;29;20067;-70
2021/08/01 04:06:33;;;;;;;3.80;2.13;;;;;;;21.12;50.95;101046.63;4952094;28;20027;-69
2021/08/01 04:08:59;;;;;;;2.67;2.00;;;;;;;21.11;51.01;101048.47;4933517;29;20126;-69
2021/08/01 04:11:25;;;;;;;3.13;2.00;;;;;;;21.11;50.80;101056.47;4951375;28;20039;-70
2021/08/01 04:13:50;;;;;;;3.60;2.05;;;;;;;21.10;50.56;101054.84;4951603;28;20062;-69
2021/08/01 04:16:16;;;;;;;3.20;2.33;;;;;;;21.10;50.37;101064.69;4951510;28;20122;-69
2021/08/01 04:18:41;;;;;;;3.20;2.15;;;;;;;21.10;50.24;101068.19;4951847;28;20036;-69
2021/08/01 04:21:11;;;;;;;2.85;1.98;;;;;;;21.08;50.29;101072.91;4950932;28;20035;-69
2021/08/01 04:23:38;;;;;;;3.28;2.25;;;;;;;21.08;50.33;101072.06;4937747;28;20059;-69
2021/08/01 04:26:05;;;;;;;4.03;2.42;;;;;;;21.07;50.24;101075.75;4951394;28;20039;-69
2021/08/01 04:28:31;;;;;;;3.35;2.42;;;;;;;21.05;49.82;101073.31;4950975;28;20054;-70
2021/08/01 04:30:56;;;;;;;2.72;1.90;;;;;;;21.05;49.55;101075.97;4951694;28;20401;-69
2021/08/01 04:33:21;;;;;;;4.38;2.47;;;;;;;21.04;49.71;101078.84;4950859;28;20114;-69
2021/08/01 04:35:47;;;;;;;2.85;2.08;;;;;;;21.03;49.51;101080.69;4951615;28;20479;-69
2021/08/01 04:38:12;;;;;;;3.30;2.13;;;;;;;21.05;49.84;101083.16;4950668;28;20031;-69
2021/08/01 04:40:38;;;;;;;3.35;2.20;;;;;;;21.04;49.61;101090.34;4950312;28;20570;-70
2021/08/01 04:43:03;;;;;;;3.53;2.35;;;;;;;21.04;49.52;101092.19;4958453;28;20039;-70
2021/08/01 04:45:29;;;;;;;2.45;2.05;;;;;;;21.03;49.66;101088.69;4963514;28;20034;-70
2021/08/01 04:47:54;;;;;;;4.45;2.35;;;;;;;21.02;49.20;101097.72;4962340;28;20133;-70
2021/08/01 04:50:20;;;;;;;2.97;2.28;;;;;;;21.01;49.39;101098.75;4960992;28;20039;-69
2021/08/01 04:52:45;;;;;;;3.65;2.17;;;;;;;21.00;49.03;101102.44;4964463;28;20082;-69
2021/08/01 04:55:12;;;;;;;3.10;2.05;;;;;;;21.00;48.88;101101.59;4957693;28;20028;-69
2021/08/01 04:57:37;;;;;;;3.50;2.08;;;;;;;20.99;48.56;101097.25;4962181;28;20041;-69
2021/08/01 05:00:07;;;;;;;4.25;2.15;;;;;;;20.98;48.73;101103.63;4949690;28;20039;-69
2021/08/01 05:02:32;;;;;;;3.05;1.80;;;;;;;20.98;48.28;101106.28;4933012;28;20049;-69
2021/08/01 05:05:03;;;;;;;5.00;1.98;;;;;;;20.97;48.64;101107.31;4951115;28;20043;-69
2021/08/01 05:07:29;;;;;;;3.40;1.90;;;;;;;20.98;48.65;101108.94;4950588;28;20150;-69
2021/08/01 05:09:54;;;;;;;3.65;2.08;;;;;;;20.96;48.45;101111.81;4949613;28;20472;-69
2021/08/01 05:12:20;;;;;;;3.10;1.80;;;;;;;20.96;48.33;101121.66;4950877;28;20043;-69
2021/08/01 05:14:45;;;;;;;3.58;1.42;;;;;;;20.96;48.43;101108.34;4950155;28;20045;-69
2021/08/01 05:17:12;;;;;;;4.40;1.98;;;;;;;20.96;48.33;101114.50;4950308;28;20035;-69
2021/08/01 05:19:39;;;;;;;3.47;2.10;;;;;;;20.96;47.91;101109.16;4950117;28;20128;-69
2021/08/01 05:22:05;;;;;;;3.13;1.70;;;;;;;20.96;48.26;101122.50;4950584;28;20501;-69
2021/08/01 05:24:30;;;;;;;3.63;1.85;;;;;;;20.96;48.23;101124.34;4949934;28;20102;-69
2021/08/01 05:26:55;;;;;;;3.95;1.85;;;;;;;20.94;48.04;101125.34;4950332;28;20414;-69
2021/08/01 05:29:21;;;;;;;5.95;1.92;;;;;;;20.94;47.68;101135.19;4950443;29;20552;-69
2021/08/01 05:31:46;;;;;;;2.90;1.90;;;;;;;20.94;47.99;101141.34;4950501;29;20095;-69
2021/08/01 05:34:12;;;;;;;2.67;1.75;;;;;;;20.94;47.56;101135.19;4950003;28;20152;-69
2021/08/01 05:36:37;;;;;;;2.67;1.83;;;;;;;20.94;47.70;101133.34;4933121;29;20071;-69
2021/08/01 05:39:03;;;;;;;2.92;1.80;;;;;;;20.96;47.64;101127.00;4949040;28;20067;-69
2021/08/01 05:41:28;;;;;;;2.78;1.63;;;;;;;20.94;47.76;101132.53;4950457;28;20057;-69
2021/08/01 05:43:53;;;;;;;4.90;1.95;;;;;;;20.94;47.35;101130.69;4963085;28;20058;-70
2021/08/01 05:46:19;;;;;;;2.83;1.65;;;;;;;20.94;47.75;101130.69;4960242;28;20023;-69
2021/08/01 05:48:44;;;;;;;3.72;1.98;;;;;;;20.93;47.63;101141.56;4943819;28;20046;-69
2021/08/01 05:51:10;;;;;;;4.03;1.75;;;;;;;20.93;47.58;101147.72;4962439;28;20054;-69
2021/08/01 05:53:35;;;;;;;2.85;1.50;;;;;;;20.94;47.37;101151.19;4958859;28;20062;-69
2021/08/01 05:56:12;;;;;;;3.30;1.77;;;;;;;20.90;47.22;101148.13;4946662;28;20031;-70
2021/08/01 05:58:38;;;;;;;4.28;2.13;;;;;;;20.94;47.09;101151.19;4948983;28;20039;-70
2021/08/01 06:01:12;;;;;;;3.20;1.58;;;;;;;20.91;47.38;101160.44;4948747;29;20069;-69
2021/08/01 06:03:38;;;;;;;4.88;1.75;;;;;;;20.92;47.01;101162.06;4950378;28;20110;-69
2021/08/01 06:06:15;;;;;;;3.72;1.77;;;;;;;20.89;46.93;101162.47;4949472;28;20039;-70
2021/08/01 06:08:42;;;;;;;4.10;1.60;;;;;;;20.89;47.09;101162.47;4949317;28;20043;-69
2021/08/01 06:11:08;;;;;;;3.67;1.60;;;;;;;20.89;47.12;101156.31;4953003;28;20046;-69
2021/08/01 06:13:34;;;;;;;3.42;2.00;;;;;;;20.89;46.82;101164.31;4953606;28;20042;-69
2021/08/01 06:16:00;;;;;;;3.53;1.77;;;;;;;20.88;46.89;101166.16;4953861;28;20369;-69
2021/08/01 06:18:25;;;;;;;3.00;1.60;;;;;;;20.87;46.81;101159.19;4952790;28;20023;-69
2021/08/01 06:21:04;;;;;;;3.10;1.63;;;;;;;20.84;46.61;101164.91;4953612;28;20062;-70
2021/08/01 06:23:30;;;;;;;3.42;1.80;;;;;;;20.87;46.61;101158.34;4952311;28;20038;-69
2021/08/01 06:25:55;;;;;;;4.38;1.80;;;;;;;20.87;46.75;101156.53;4952992;28;20043;-69
2021/08/01 06:28:21;;;;;;;5.25;2.00;;;;;;;20.86;46.71;101162.88;4953119;28;20045;-69
2021/08/01 06:30:46;;;;;;;3.47;1.70;;;;;;;20.86;46.57;101162.06;4953402;28;20050;-69
2021/08/01 06:33:12;;;;;;;3.97;1.75;;;;;;;20.86;46.81;101160.22;4952978;28;20035;-69
2021/08/01 06:35:37;;;;;;;2.60;1.60;;;;;;;20.86;46.61;101160.22;4953335;28;20035;-69
2021/08/01 06:38:03;;;;;;;2.92;1.90;;;;;;;20.85;46.58;101166.56;4952745;28;20142;-69
2021/08/01 06:40:28;;;;;;;3.85;1.80;;;;;;;20.85;46.27;101166.56;4952341;28;20083;-69
2021/08/01 06:42:53;;;;;;;4.60;1.60;;;;;;;20.85;46.37;101166.56;4943611;28;20099;-69
2021/08/01 06:45:19;;;;;;;3.83;1.90;;;;;;;20.84;46.28;101167.59;4963719;28;20452;-69
2021/08/01 06:47:44;;;;;;;3.15;1.60;;;;;;;20.83;46.25;101165.94;4965335;28;20665;-69
2021/08/01 06:50:10;;;;;;;5.47;1.67;;;;;;;20.83;46.05;101160.59;4961824;28;20556;-69
2021/08/01 06:52:35;;;;;;;3.28;1.70;;;;;;;20.83;46.29;101167.78;4966183;28;20035;-69
2021/08/01 06:55:02;;;;;;;3.72;1.70;;;;;;;20.84;45.96;101174.75;4960850;28;20366;-69
2021/08/01 06:57:28;;;;;;;3.38;1.52;;;;;;;20.84;46.11;101172.91;4963635;28;20744;-69
2021/08/01 06:59:53;;;;;;;2.85;1.73;;;;;;;20.84;46.27;101175.59;4952474;28;20035;-69
2021/08/01 07:02:19;;;;;;;2.95;1.55;;;;;;;20.82;45.99;101172.25;4951912;28;20118;-69
2021/08/01 07:04:44;;;;;;;2.67;1.63;;;;;;;20.83;46.23;101168.59;4952248;28;20091;-69
2021/08/01 07:07:09;;;;;;;3.30;1.48;;;;;;;20.84;46.19;101174.75;4953308;28;20545;-69
2021/08/01 07:09:40;;;;;;;4.10;1.73;;;;;;;20.83;45.96;101173.94;4951414;28;20039;-69
2021/08/01 07:12:08;;;;;;;2.25;1.40;;;;;;;20.82;46.02;101172.25;4952949;28;20035;-70
2021/08/01 07:14:34;;;;;;;3.65;1.63;;;;;;;20.80;46.04;101174.31;4934465;28;20441;-70
2021/08/01 07:17:01;;;;;;;4.55;2.03;;;;;;;20.80;45.80;101179.63;4952869;28;20528;-69
2021/08/01 07:19:27;;;;;;;3.10;1.50;;;;;;;20.80;45.51;101178.81;4951953;28;20512;-69
2021/08/01 07:21:53;;;;;;;2.55;1.50;;;;;;;20.79;45.78;101186.00;4938734;28;20485;-69
2021/08/01 07:24:18;;;;;;;3.50;1.65;;;;;;;20.78;45.50;101180.84;4951550;28;20051;-69
2021/08/01 07:26:45;;;;;;;2.90;1.50;;;;;;;20.78;45.52;101184.34;4952357;28;20115;-69
2021/08/01 07:29:10;;;;;;;2.85;1.60;;;;;;;20.79;45.50;101177.16;4952638;28;20035;-70
2021/08/01 07:31:36;;;;;;;2.95;1.80;;;;;;;20.78;45.39;101184.34;4951711;28;20488;-69
2021/08/01 07:34:01;;;;;;;3.20;1.85;;;;;;;20.79;45.65;101179.84;4952581;28;20035;-70
2021/08/01 07:36:28;;;;;;;3.00;1.50;;;;;;;20.79;45.48;101185.16;4951917;28;20047;-69
2021/08/01 07:38:53;;;;;;;2.42;1.33;;;;;;;20.78;45.33;101181.69;4951548;28;20699;-69
2021/08/01 07:41:19;;;;;;;2.50;1.60;;;;;;;20.79;45.25;101185.16;4952054;28;20035;-69
2021/08/01 07:43:45;;;;;;;2.83;1.50;;;;;;;20.79;45.47;101191.31;4963707;28;20062;-69
2021/08/01 07:46:11;;;;;;;3.30;1.70;;;;;;;20.78;45.25;101184.34;4963906;28;20042;-69
2021/08/01 07:48:36;;;;;;;3.45;1.70;;;;;;;20.78;45.52;101187.00;4961788;28;20421;-69
2021/08/01 07:51:02;;;;;;;3.08;1.70;;;;;;;20.78;45.47;101186.19;4965873;28;20141;-69
2021/08/01 07:53:27;;;;;;;4.40;1.95;;;;;;;20.78;45.24;101187.00;4959238;28;20082;-69
2021/08/01 07:55:53;;;;;;;3.63;1.65;;;;;;;20.77;45.44;101185.38;4965437;28;20118;-69
2021/08/01 07:58:18;;;;;;;3.03;1.52;;;;;;;20.77;45.20;101198.69;4957046;28;20046;-69
2021/08/01 08:00:44;;;;;;;3.60;1.90;;;;;;;20.77;44.98;101196.03;4950841;28;20469;-68
2021/08/01 08:03:09;;;;;;;3.78;1.50;;;;;;;20.77;44.99;101198.69;4921577;29;20039;-69
2021/08/01 08:05:35;;;;;;;5.93;1.70;;;;;;;20.77;45.12;101198.69;4952027;28;20094;-69
2021/08/01 08:08:00;;;;;;;3.03;1.90;;;;;;;20.77;45.00;101201.38;4950999;28;20054;-69
2021/08/01 08:10:26;;;;;;;2.95;1.70;;;;;;;20.76;45.27;101202.38;4951263;29;20046;-69
2021/08/01 08:12:51;;;;;;;3.70;1.70;;;;;;;20.76;45.18;101199.72;4951193;28;20039;-69
2021/08/01 08:15:17;;;;;;;3.25;1.95;;;;;;;20.76;45.10;101210.38;4951476;28;20040;-69
2021/08/01 08:17:43;;;;;;;3.30;1.70;;;;;;;20.76;45.35;101209.56;4951600;29;20039;-69
2021/08/01 08:20:09;;;;;;;3.55;1.83;;;;;;;20.76;45.08;101210.38;4951292;28;20063;-69
2021/08/01 08:22:36;;;;;;;3.90;1.70;;;;;;;20.74;45.03;101207.09;4950528;28;20412;-69
2021/08/01 08:25:04;;;;;;;3.33;2.08;;;;;;;20.74;45.11;101212.41;4950638;28;20026;-69
2021/08/01 08:27:29;;;;;;;2.30;1.42;;;;;;;20.74;44.73;101206.25;4951526;29;20039;-69
2021/08/01 08:29:55;;;;;;;2.92;1.50;;;;;;;20.72;44.63;101209.13;4950576;28;20656;-69
2021/08/01 08:32:20;;;;;;;3.25;1.80;;;;;;;20.71;44.87;101204.81;4951481;28;20047;-69
2021/08/01 08:34:46;;;;;;;2.58;1.73;;;;;;;20.71;44.65;101204.81;4950022;28;20591;-69
2021/08/01 08:37:12;;;;;;;2.83;1.50;;;;;;;20.72;44.72;101203.81;4951615;28;20031;-69
2021/08/01 08:39:38;;;;;;;3.20;1.63;;;;;;;20.73;44.84;101201.97;4950173;28;20472;-69
2021/08/01 08:42:03;;;;;;;2.58;1.60;;;;;;;20.73;44.56;101201.97;4955196;28;20038;-69
2021/08/01 08:44:29;;;;;;;3.22;1.52;;;;;;;20.73;44.71;101199.28;4962410;28;20440;-69
2021/08/01 08:46:56;;;;;;;3.75;1.60;;;;;;;20.74;44.68;101198.28;4960690;28;20326;-69
2021/08/01 08:49:22;;;;;;;2.65;1.38;;;;;;;20.74;44.53;101201.75;4964521;28;20034;-69
2021/08/01 08:51:51;;;;;;;2.88;1.40;;;;;;;20.73;44.49;101199.28;4958734;28;20039;-69
2021/08/01 08:54:21;;;;;;;2.20;1.40;;;;;;;20.72;44.69;101201.13;4963851;28;20027;-69
2021/08/01 08:56:48;;;;;;;3.42;1.77;;;;;;;20.72;44.80;101203.81;4958852;28;20106;-69
2021/08/01 08:59:17;;;;;;;3.65;1.30;;;;;;;20.72;44.49;101200.31;4954052;28;20039;-69
2021/08/01 09:01:43;;;;;;;2.60;1.50;;;;;;;20.72;44.57;101197.66;4950047;28;20023;-69
2021/08/01 09:04:10;;;;;;;4.43;1.70;;;;;;;20.72;44.47;101198.47;4950323;28;20090;-69
2021/08/01 09:06:36;;;;;;;3.45;1.77;;;;;;;20.72;44.53;101198.47;4946580;29;20031;-69
2021/08/01 09:09:02;;;;;;;2.38;1.48;;;;;;;20.72;44.69;101201.13;4950100;28;20094;-69
2021/08/01 09:11:28;;;;;;;3.05;1.65;;;;;;;20.72;44.37;101197.66;4950242;28;20039;-70
2021/08/01 09:13:55;;;;;;;3.20;1.23;;;;;;;20.71;44.69;101202.16;4950264;28;20099;-69
2021/08/01 09:16:39;;;;;;;4.20;1.50;;;;;;;20.71;44.75;101201.34;4950376;28;20051;-70
2021/08/01 09:19:43;;;;;;;2.40;1.60;;;;;;;20.66;44.70;101201.88;4950579;29;20051;-69
2021/08/01 09:22:21;;;;;;;2.70;1.63;;;;;;;20.66;44.83;101201.06;4939816;28;20043;-70
2021/08/01 09:24:49;;;;;;;3.20;1.40;;;;;;;20.69;44.47;101206.84;4949064;28;20043;-69
2021/08/01 09:27:34;;;;;;;2.55;1.23;;;;;;;20.67;44.48;101213.38;4950481;28;20043;-69
2021/08/01 09:30:02;;;;;;;3.10;1.77;;;;;;;20.70;44.64;101202.34;4949887;28;20465;-69
2021/08/01 09:32:31;;;;;;;2.95;1.52;;;;;;;20.70;44.45;101207.69;4950802;28;20039;-69
2021/08/01 09:34:57;;;;;;;2.97;1.42;;;;;;;20.71;44.52;101207.47;4949799;28;20078;-69
2021/08/01 09:37:34;;;;;;;3.55;1.40;;;;;;;20.69;44.41;101204.19;4950440;28;20369;-69
2021/08/01 09:40:08;;;;;;;3.30;1.60;;;;;;;20.69;44.58;101212.19;4949106;28;20062;-69
2021/08/01 09:42:45;;;;;;;2.75;1.45;;;;;;;20.68;44.49;101209.72;4958272;28;20038;-69
2021/08/01 09:45:21;;;;;;;2.35;1.58;;;;;;;20.68;44.36;101207.06;4961155;28;20122;-69
2021/08/01 09:47:49;;;;;;;3.95;1.60;;;;;;;20.70;44.49;101213.84;4966393;28;20046;-69
2021/08/01 09:50:17;;;;;;;2.40;1.42;;;;;;;20.71;44.48;101214.66;4963732;28;20444;-69
2021/08/01 09:52:43;;;;;;;3.47;1.50;;;;;;;20.71;44.41;101212.81;4967863;28;20037;-69
2021/08/01 09:55:21;;;;;;;2.58;1.50;;;;;;;20.67;44.18;101216.91;4961181;28;20388;-69
2021/08/01 09:57:57;;;;;;;2.38;1.40;;;;;;;20.69;44.51;101216.69;4951525;28;20519;-70
2021/08/01 10:00:23;;;;;;;2.40;1.40;;;;;;;20.72;44.46;101221.63;4952859;29;20035;-69
2021/08/01 10:02:49;;;;;;;2.42;1.23;;;;;;;20.71;44.55;101210.16;4953651;28;20066;-69
2021/08/01 10:05:23;;;;;;;3.70;1.52;;;;;;;20.70;44.53;101213.00;4953916;29;20043;-69
2021/08/01 10:07:50;;;;;;;2.42;1.50;;;;;;;20.70;44.41;101221.84;4953803;29;20039;-69
2021/08/01 10:10:21;;;;;;;2.17;1.13;;;;;;;20.70;44.58;101226.34;4953369;29;20035;-69
2021/08/01 10:12:49;;;;;;;2.55;1.63;;;;;;;20.71;44.61;101220.81;4953702;29;20042;-69
2021/08/01 10:15:15;;;;;;;2.53;1.50;;;;;;;20.71;44.53;101220.81;4953737;29;20505;-69
2021/08/01 10:17:41;;;;;;;2.88;1.45;;;;;;;20.73;44.76;101220.63;4953818;29;20067;-69
2021/08/01 10:20:07;;;;;;;2.08;1.25;;;;;;;20.73;44.45;101225.94;4953648;29;20062;-69
2021/08/01 10:22:37;;;;;;;2.28;1.50;;;;;;;20.72;44.52;101229.63;4953422;28;20410;-69
2021/08/01 10:25:07;;;;;;;2.60;1.40;;;;;;;20.74;44.73;101232.94;4952300;28;20023;-70
2021/08/01 10:27:37;;;;;;;3.05;1.48;;;;;;;20.73;44.47;101223.28;4953645;28;20500;-69
2021/08/01 10:30:03;;;;;;;4.63;1.83;;;;;;;20.73;44.33;101231.28;4952943;28;20035;-69
2021/08/01 10:32:33;;;;;;;3.90;1.52;;;;;;;20.72;44.25;101233.13;4953715;28;20122;-69
2021/08/01 10:35:06;;;;;;;4.40;1.42;;;;;;;20.72;44.54;101240.31;4952818;28;20118;-69
2021/08/01 10:37:45;;;;;;;2.28;1.50;;;;;;;20.71;44.24;101233.31;4953920;28;20023;-69
2021/08/01 10:40:14;;;;;;;3.88;1.33;;;;;;;20.71;44.27;101234.16;4952624;28;20800;-70
2021/08/01 10:42:42;;;;;;;3.67;1.90;;;;;;;20.71;44.54;101242.16;4961040;28;20031;-69
2021/08/01 10:45:09;;;;;;;2.53;1.23;;;;;;;20.72;44.42;101241.13;4962582;28;20370;-69
2021/08/01 10:47:36;;;;;;;3.15;1.50;;;;;;;20.72;44.36;101230.47;4967137;28;20041;-69
2021/08/01 10:50:02;;;;;;;2.33;1.50;;;;;;;20.72;43.99;101233.13;4960923;28;20047;-70
2021/08/01 10:52:31;;;;;;;2.95;1.33;;;;;;;20.71;43.95;101217.31;4959109;28;20093;-69
2021/08/01 10:55:03;;;;;;;4.00;1.90;;;;;;;20.70;44.07;101232.50;4961241;28;20035;-69
2021/08/01 10:57:29;;;;;;;2.50;1.33;;;;;;;20.71;44.24;101238.66;4950690;28;20095;-70
2021/08/01 10:59:58;;;;;;;1.83;1.20;;;;;;;20.71;44.10;101234.16;4952488;29;20039;-70
2021/08/01 11:02:25;;;;;;;3.38;1.38;;;;;;;20.71;44.11;101222.66;4952195;28;20035;-69
2021/08/01 11:04:51;;;;;;;2.53;1.40;;;;;;;20.71;44.06;101226.16;4951871;28;20027;-69
2021/08/01 11:07:26;;;;;;;2.30;1.40;;;;;;;20.70;44.25;101226.34;4953110;28;20032;-69
2021/08/01 11:10:07;;;;;;;;;;;;;;;20.64;44.45;101230.59;4952324;28;20113;-70
2021/08/01 11:12:37;;;;;;;2.28;1.38;;;;;;;20.72;44.27;101226.97;4935588;29;20050;-69
2021/08/01 11:15:13;;;;;;;3.10;1.60;;;;;;;20.71;44.21;101226.16;4952069;28;20094;-69
2021/08/01 11:18:04;;;;;;;2.58;1.30;;;;;;;20.71;44.38;101225.31;4952868;28;20536;-70
2021/08/01 11:20:31;;;;;;;2.60;1.55;;;;;;;20.75;44.24;101235.41;4946938;29;20044;-70
2021/08/01 11:22:58;;;;;;;1.95;1.27;;;;;;;20.77;44.20;101222.69;4951537;28;20048;-69
2021/08/01 11:25:30;;;;;;;2.42;1.33;;;;;;;20.77;44.53;101220.03;4952063;29;20078;-69
2021/08/01 11:28:07;;;;;;;3.05;1.40;;;;;;;20.75;44.45;101221.25;4952396;28;20043;-69